Terminal Aerodrome Forecast
Issued by NWS Milwaukee/Sullivan, WI

Current Version | Previous Version | Text Only | Print | Product List | Glossary On
Versions: 1 2 3 4 5 6 7 8 9 10 11 12 13 14 15 16 17 18 19 20 21 22 23 24 25 26 27 28 29 30 31 32 33 34 35 36 37 38 39 40 41 42 43 44 45 46 47 48 49 50
000
FTUS43 KMKX 240857 AAA
TAFMKE
TAF AMD
KMKE 240857Z 2409/2512 21011KT P6SM BKN150 WS020/20050KT
     FM241500 22008KT P6SM BKN130
     FM242000 26007KT P6SM BKN100
     FM242300 01007KT P6SM VCSH OVC030
     FM250000 02008KT 3SM -SHRA OVC015
     FM250300 02008KT 1 1/2SM -SHRA OVC003=

USA.gov is the U.S. government's official web portal to all federal, state and local government web resources and services.